createdAt,value
2023-05-20T00:02:07.294Z,57.13
2023-05-20T00:05:08.976Z,57.28
2023-05-20T00:08:11.017Z,57.29
2023-05-20T00:11:12.456Z,57.59
2023-05-20T00:14:14.246Z,57.70
2023-05-20T00:17:15.689Z,57.99
2023-05-20T00:20:17.156Z,58.38
2023-05-20T00:23:18.616Z,58.85
2023-05-20T00:26:21.254Z,59.17
2023-05-20T00:29:28.397Z,59.36
2023-05-20T00:32:29.951Z,59.89
2023-05-20T00:35:31.659Z,60.21
2023-05-20T00:38:34.019Z,60.49
2023-05-20T00:41:35.805Z,60.80
2023-05-20T00:44:37.233Z,60.88
2023-05-20T00:47:39.086Z,61.52
2023-05-20T00:50:40.588Z,61.88
2023-05-20T00:53:42.217Z,62.15
2023-05-20T00:56:44.553Z,62.31
2023-05-20T00:59:46.081Z,62.55
2023-05-20T01:02:47.707Z,62.79
2023-05-20T01:05:49.346Z,63.15
2023-05-20T01:08:51.222Z,63.14
2023-05-20T01:11:59.855Z,63.73
2023-05-20T01:15:09.428Z,63.55
2023-05-20T01:18:13.431Z,63.88
2023-05-20T01:21:15.814Z,64.25
2023-05-20T01:24:17.263Z,64.82
2023-05-20T01:27:20.542Z,65.00
2023-05-20T01:30:22.580Z,64.71
2023-05-20T01:33:25.625Z,64.86
2023-05-20T01:36:28.398Z,65.51
2023-05-20T01:39:30.884Z,65.81
2023-05-20T01:42:33.843Z,66.57
2023-05-20T01:45:35.731Z,66.69
2023-05-20T01:48:38.281Z,67.26
2023-05-20T01:51:39.780Z,66.95
2023-05-20T01:54:41.236Z,67.41
2023-05-20T01:57:42.674Z,67.51
2023-05-20T02:00:44.643Z,67.94
2023-05-20T02:03:46.091Z,67.92
2023-05-20T02:06:47.530Z,67.78
2023-05-20T02:09:49.740Z,67.87
2023-05-20T02:12:51.262Z,68.59
2023-05-20T02:15:52.799Z,67.80
2023-05-20T02:18:54.313Z,68.63
2023-05-20T02:21:55.912Z,68.82
2023-05-20T02:24:57.339Z,69.61
2023-05-20T02:27:58.825Z,69.65
2023-05-20T02:31:02.376Z,68.81
2023-05-20T02:34:06.116Z,70.31
2023-05-20T02:37:07.689Z,70.69
2023-05-20T02:40:09.533Z,71.08
2023-05-20T02:43:12.707Z,71.39
2023-05-20T02:46:15.731Z,71.13
2023-05-20T02:49:17.180Z,70.55
2023-05-20T02:52:18.824Z,70.38
2023-05-20T02:55:20.289Z,71.09
2023-05-20T02:58:26.218Z,70.58
2023-05-20T03:01:29.065Z,71.65
2023-05-20T03:04:31.585Z,71.15
2023-05-20T03:07:36.453Z,71.01
2023-05-20T03:10:40.714Z,70.39
2023-05-20T03:13:42.148Z,70.55
2023-05-20T03:16:43.650Z,70.85
2023-05-20T03:19:45.081Z,70.94
2023-05-20T03:22:46.556Z,70.90
2023-05-20T03:25:48.702Z,71.49
2023-05-20T03:28:50.143Z,71.44
2023-05-20T03:31:51.989Z,71.66
2023-05-20T03:34:54.504Z,71.89
2023-05-20T03:37:56.241Z,71.32
2023-05-20T03:40:59.368Z,71.42
2023-05-20T03:44:01.004Z,71.85
2023-05-20T03:47:02.756Z,71.70
2023-05-20T03:50:06.439Z,71.84
2023-05-20T03:53:08.004Z,72.28
2023-05-20T03:56:13.782Z,72.26
2023-05-20T03:59:16.275Z,72.62
2023-05-20T04:02:17.924Z,72.67
2023-05-20T04:05:19.688Z,72.95
2023-05-20T04:08:22.152Z,73.43
2023-05-20T04:11:24.025Z,74.25
2023-05-20T04:14:25.603Z,74.07
2023-05-20T04:17:31.279Z,74.23
2023-05-20T04:20:33.156Z,74.57
2023-05-20T04:23:35.447Z,75.10
2023-05-20T04:26:37.563Z,75.28
2023-05-20T04:29:41.426Z,75.20
2023-05-20T04:32:42.961Z,75.23
2023-05-20T04:35:44.832Z,74.56
2023-05-20T04:38:47.328Z,74.68
2023-05-20T04:41:49.222Z,75.39
2023-05-20T04:44:51.582Z,75.28
2023-05-20T04:47:53.452Z,75.49
2023-05-20T04:50:55.071Z,75.80
2023-05-20T04:53:56.630Z,76.65
2023-05-20T04:56:58.696Z,78.03
2023-05-20T05:00:00.981Z,79.16
2023-05-20T05:03:04.033Z,79.12
2023-05-20T05:06:05.517Z,80.72
2023-05-20T05:09:07.915Z,80.69
2023-05-20T05:12:12.507Z,80.47
2023-05-20T05:15:14.155Z,81.13
2023-05-20T05:18:18.489Z,80.88
2023-05-20T05:21:20.108Z,81.67
2023-05-20T05:24:22.920Z,81.30
2023-05-20T05:27:24.870Z,80.46
2023-05-20T05:30:26.983Z,81.49
2023-05-20T05:33:28.719Z,81.57
2023-05-20T05:36:33.834Z,80.80
2023-05-20T05:39:40.714Z,80.94
2023-05-20T05:42:42.185Z,80.48
2023-05-20T05:45:43.722Z,80.61
2023-05-20T05:48:48.858Z,80.64
2023-05-20T05:51:51.401Z,80.57
2023-05-20T05:54:54.218Z,80.38
2023-05-20T05:57:56.684Z,80.84
2023-05-20T06:00:58.468Z,80.33
2023-05-20T06:04:00.150Z,80.39
2023-05-20T06:07:02.146Z,81.03
2023-05-20T06:10:03.880Z,79.74
2023-05-20T06:13:05.659Z,79.15
2023-05-20T06:16:07.904Z,79.43
2023-05-20T06:19:09.548Z,79.63
2023-05-20T06:22:11.306Z,78.98
2023-05-20T06:25:14.160Z,80.00
2023-05-20T06:28:16.509Z,80.14
2023-05-20T06:31:18.111Z,79.65
2023-05-20T06:34:19.633Z,79.98
2023-05-20T06:37:24.240Z,79.05
2023-05-20T06:40:27.195Z,80.14
2023-05-20T06:43:29.381Z,80.21
2023-05-20T06:46:44.648Z,80.07
2023-05-20T06:49:49.622Z,79.37
2023-05-20T06:52:51.165Z,79.09
2023-05-20T06:55:56.040Z,78.08
2023-05-20T06:58:57.645Z,78.11
2023-05-20T07:01:59.623Z,77.73
2023-05-20T07:05:01.334Z,76.69
2023-05-20T07:08:02.823Z,76.34
2023-05-20T07:11:04.421Z,75.21
2023-05-20T07:14:06.007Z,74.55
2023-05-20T07:17:07.718Z,71.98
2023-05-20T07:20:09.618Z,71.34
2023-05-20T07:23:11.705Z,69.51
2023-05-20T07:26:17.093Z,70.06
2023-05-20T07:29:18.646Z,68.45
2023-05-20T07:32:20.205Z,66.88
2023-05-20T07:35:21.874Z,65.74
2023-05-20T07:38:23.450Z,65.27
2023-05-20T07:41:31.923Z,66.98
2023-05-20T07:44:33.795Z,65.60
2023-05-20T07:47:35.676Z,65.29
2023-05-20T07:50:37.227Z,64.90
2023-05-20T07:53:39.513Z,64.54
2023-05-20T07:56:41.207Z,65.10
2023-05-20T07:59:44.890Z,62.21
2023-05-20T08:02:46.754Z,61.76
2023-05-20T08:05:53.291Z,61.80
2023-05-20T08:08:55.069Z,60.20
2023-05-20T08:12:03.202Z,59.94
2023-05-20T08:15:05.537Z,59.13
2023-05-20T08:18:07.089Z,59.73
2023-05-20T08:21:09.889Z,60.01
2023-05-20T08:24:11.607Z,59.34
2023-05-20T08:27:13.969Z,58.42
2023-05-20T08:30:15.511Z,57.29
2023-05-20T08:33:19.237Z,58.25
2023-05-20T08:36:20.666Z,57.91
2023-05-20T08:39:22.142Z,57.61
2023-05-20T08:42:24.441Z,58.06
2023-05-20T08:45:32.696Z,55.45
2023-05-20T08:48:39.748Z,56.56
2023-05-20T08:51:42.901Z,56.29
2023-05-20T08:54:46.454Z,55.43
2023-05-20T08:57:49.486Z,56.32
2023-05-20T09:00:52.918Z,54.90
2023-05-20T09:03:54.336Z,55.76
2023-05-20T09:06:55.827Z,55.11
2023-05-20T09:09:58.310Z,55.34
2023-05-20T09:13:02.632Z,55.16
2023-05-20T09:16:04.377Z,55.21
2023-05-20T09:19:07.463Z,56.60
2023-05-20T09:22:08.976Z,54.52
2023-05-20T09:25:12.305Z,53.40
2023-05-20T09:28:13.771Z,51.75
2023-05-20T09:31:16.360Z,51.97
2023-05-20T09:34:18.118Z,54.26
2023-05-20T09:37:21.718Z,52.93
2023-05-20T09:40:28.321Z,51.91
2023-05-20T09:43:30.022Z,51.55
2023-05-20T09:46:31.656Z,52.26
2023-05-20T09:49:35.108Z,51.40
2023-05-20T09:52:39.818Z,52.11
2023-05-20T09:55:42.417Z,52.40
2023-05-20T09:58:44.957Z,52.55
2023-05-20T10:01:46.707Z,52.35
2023-05-20T10:04:52.106Z,53.08
2023-05-20T10:08:18.344Z,53.13
2023-05-20T10:11:30.931Z,52.81
2023-05-20T10:14:59.449Z,51.85
2023-05-20T10:18:30.579Z,51.54
2023-05-20T10:21:32.813Z,51.10
2023-05-20T10:24:42.892Z,49.13
2023-05-20T10:27:46.942Z,48.47
2023-05-20T10:30:51.533Z,48.78
2023-05-20T10:33:54.302Z,48.74
2023-05-20T10:36:55.749Z,48.01
2023-05-20T10:40:11.465Z,47.53
2023-05-20T10:43:15.953Z,47.49
2023-05-20T10:46:32.655Z,45.98
2023-05-20T10:49:44.128Z,46.26
2023-05-20T10:52:45.641Z,45.90
2023-05-20T10:55:51.701Z,45.56
2023-05-20T10:58:54.617Z,45.36
2023-05-20T11:01:56.277Z,45.98
2023-05-20T11:04:58.413Z,45.12
2023-05-20T11:08:08.069Z,46.12
2023-05-20T11:11:13.415Z,46.33
2023-05-20T11:14:16.346Z,45.72
2023-05-20T11:17:19.015Z,45.69
2023-05-20T11:20:20.812Z,46.57
2023-05-20T11:23:23.400Z,46.46
2023-05-20T11:26:24.869Z,45.76
2023-05-20T11:29:27.095Z,46.69
2023-05-20T11:32:28.692Z,47.27
2023-05-20T11:35:33.315Z,47.96
2023-05-20T11:38:34.725Z,46.79
2023-05-20T11:41:36.171Z,46.70
2023-05-20T11:44:42.951Z,46.88
2023-05-20T11:47:44.476Z,47.01
2023-05-20T11:50:47.433Z,46.39
2023-05-20T11:53:48.841Z,46.14
2023-05-20T11:56:50.678Z,46.04
2023-05-20T11:59:52.145Z,46.90
2023-05-20T12:02:54.017Z,45.01
2023-05-20T12:05:55.577Z,46.13
2023-05-20T12:08:57.279Z,46.48
2023-05-20T12:11:59.316Z,46.69
2023-05-20T12:15:00.834Z,47.21
2023-05-20T12:18:02.561Z,47.28
2023-05-20T12:21:04.349Z,47.38
2023-05-20T12:24:06.927Z,47.67
2023-05-20T12:27:08.496Z,47.56
2023-05-20T12:30:10.647Z,46.95
2023-05-20T12:33:12.562Z,47.20
2023-05-20T12:36:14.669Z,47.66
2023-05-20T12:39:18.344Z,47.07
2023-05-20T12:42:19.869Z,47.19
2023-05-20T12:45:21.370Z,46.88
2023-05-20T12:48:22.810Z,47.10
2023-05-20T12:51:24.242Z,46.11
2023-05-20T12:54:28.130Z,45.88
2023-05-20T12:57:29.791Z,45.55
2023-05-20T13:00:31.315Z,44.99
2023-05-20T13:03:33.045Z,46.45
2023-05-20T13:06:34.888Z,46.96
2023-05-20T13:09:36.329Z,47.16
2023-05-20T13:12:38.204Z,46.53
2023-05-20T13:15:39.904Z,46.36
2023-05-20T13:18:41.491Z,46.03
2023-05-20T13:21:42.919Z,46.86
2023-05-20T13:24:44.356Z,46.20
2023-05-20T13:27:45.927Z,45.58
2023-05-20T13:30:47.449Z,45.71
2023-05-20T13:33:48.905Z,45.95
2023-05-20T13:36:50.945Z,46.24
2023-05-20T13:39:53.363Z,46.52
2023-05-20T13:42:55.169Z,46.54
2023-05-20T13:45:56.667Z,46.87
2023-05-20T13:48:58.179Z,46.35
2023-05-20T13:51:59.676Z,46.64
2023-05-20T13:55:01.228Z,46.40
2023-05-20T13:58:02.743Z,46.74
2023-05-20T14:01:06.122Z,46.23
2023-05-20T14:04:07.552Z,45.64
2023-05-20T14:07:09.982Z,45.75
2023-05-20T14:10:11.695Z,45.78
2023-05-20T14:13:13.539Z,46.93
2023-05-20T14:16:15.108Z,46.14
2023-05-20T14:19:16.718Z,46.14
2023-05-20T14:22:19.814Z,46.83
2023-05-20T14:25:21.509Z,46.74
2023-05-20T14:28:23.437Z,46.61
2023-05-20T14:31:26.201Z,45.53
2023-05-20T14:34:27.716Z,45.74
2023-05-20T14:37:29.581Z,45.76
2023-05-20T14:40:31.107Z,46.09
2023-05-20T14:43:32.693Z,46.84
2023-05-20T14:46:34.386Z,46.71
2023-05-20T14:49:39.012Z,46.41
2023-05-20T14:52:40.514Z,45.67
2023-05-20T14:55:42.074Z,45.39
2023-05-20T14:58:43.617Z,45.85
2023-05-20T15:01:45.087Z,46.40
2023-05-20T15:04:47.802Z,46.42
2023-05-20T15:07:50.021Z,46.77
2023-05-20T15:10:51.480Z,46.85
2023-05-20T15:13:52.940Z,46.57
2023-05-20T15:16:54.402Z,46.78
2023-05-20T15:19:55.899Z,46.92
2023-05-20T15:22:59.161Z,47.02
2023-05-20T15:26:02.141Z,46.02
2023-05-20T15:29:03.881Z,45.92
2023-05-20T15:32:06.249Z,46.45
2023-05-20T15:35:08.769Z,46.36
2023-05-20T15:38:10.481Z,46.21
2023-05-20T15:41:16.161Z,46.57
2023-05-20T15:44:18.081Z,46.59
2023-05-20T15:47:19.810Z,46.19
2023-05-20T15:50:22.959Z,46.36
2023-05-20T15:53:24.681Z,46.36
2023-05-20T15:56:26.324Z,46.32
2023-05-20T15:59:27.872Z,46.76
2023-05-20T16:02:31.265Z,46.96
2023-05-20T16:05:33.775Z,46.93
2023-05-20T16:08:37.251Z,47.45
2023-05-20T16:11:38.837Z,47.55
2023-05-20T16:14:40.459Z,47.42
2023-05-20T16:17:41.916Z,48.05
2023-05-20T16:20:43.398Z,47.63
2023-05-20T16:23:45.311Z,47.68
2023-05-20T16:26:46.828Z,47.87
2023-05-20T16:29:49.917Z,48.53
2023-05-20T16:32:51.360Z,48.40
2023-05-20T16:35:52.875Z,48.85
2023-05-20T16:38:54.349Z,48.60
2023-05-20T16:41:55.844Z,49.03
2023-05-20T16:44:57.704Z,49.54
2023-05-20T16:47:59.159Z,49.31
2023-05-20T16:51:00.701Z,49.14
2023-05-20T16:54:02.137Z,49.94
2023-05-20T16:57:04.680Z,50.31
2023-05-20T17:00:08.243Z,49.78
2023-05-20T17:03:10.895Z,49.73
2023-05-20T17:06:12.527Z,51.37
2023-05-20T17:09:14.466Z,52.38
2023-05-20T17:12:15.890Z,53.34
2023-05-20T17:15:17.604Z,53.97
2023-05-20T17:18:19.124Z,54.56
2023-05-20T17:21:20.698Z,54.92
2023-05-20T17:24:22.185Z,55.24
2023-05-20T17:27:24.536Z,55.77
2023-05-20T17:30:27.154Z,56.55
2023-05-20T17:33:29.619Z,57.57
2023-05-20T17:36:32.263Z,58.15
2023-05-20T17:39:33.758Z,58.95
2023-05-20T17:42:35.548Z,59.15
2023-05-20T17:45:36.989Z,59.67
2023-05-20T17:48:40.529Z,60.34
2023-05-20T17:51:43.226Z,61.05
2023-05-20T17:54:44.668Z,61.44
2023-05-20T17:57:46.572Z,61.93
2023-05-20T18:00:48.046Z,62.49
2023-05-20T18:03:49.630Z,63.00
2023-05-20T18:06:51.197Z,63.01
2023-05-20T18:09:53.205Z,63.45
2023-05-20T18:12:56.528Z,63.68
2023-05-20T18:15:57.986Z,64.01
2023-05-20T18:18:59.686Z,64.69
2023-05-20T18:22:02.510Z,65.10
2023-05-20T18:25:04.780Z,65.21
2023-05-20T18:28:08.667Z,65.69
2023-05-20T18:31:10.558Z,65.93
2023-05-20T18:34:12.001Z,66.41
2023-05-20T18:37:13.449Z,66.67
2023-05-20T18:40:15.082Z,66.90
2023-05-20T18:43:16.509Z,67.14
2023-05-20T18:46:18.592Z,67.44
2023-05-20T18:49:20.150Z,67.81
2023-05-20T18:52:22.151Z,68.10
2023-05-20T18:55:24.520Z,68.41
2023-05-20T18:58:26.068Z,68.62
2023-05-20T19:01:27.602Z,69.14
2023-05-20T19:04:29.132Z,69.47
2023-05-20T19:07:30.613Z,69.82
2023-05-20T19:10:32.996Z,70.21
2023-05-20T19:13:34.644Z,70.70
2023-05-20T19:16:36.256Z,70.99
2023-05-20T19:19:37.705Z,71.63
2023-05-20T19:22:39.280Z,71.95
2023-05-20T19:25:40.846Z,72.52
2023-05-20T19:28:42.246Z,73.08
2023-05-20T19:31:43.804Z,73.74
2023-05-20T19:34:45.566Z,73.53
2023-05-20T19:37:47.025Z,74.31
2023-05-20T19:40:48.586Z,74.63
2023-05-20T19:43:50.128Z,75.21
2023-05-20T19:46:52.819Z,75.53
2023-05-20T19:49:54.829Z,76.17
2023-05-20T19:52:56.390Z,76.86
2023-05-20T19:55:57.914Z,76.99
2023-05-20T19:59:01.608Z,77.37
2023-05-20T20:02:04.031Z,77.81
2023-05-20T20:05:07.234Z,78.24
2023-05-20T20:08:09.717Z,78.78
2023-05-20T20:11:12.822Z,79.37
2023-05-20T20:14:14.258Z,79.80
2023-05-20T20:17:17.258Z,80.24
2023-05-20T20:20:19.257Z,80.67
2023-05-20T20:23:21.342Z,81.25
2023-05-20T20:26:25.655Z,81.30
2023-05-20T20:29:27.092Z,81.62
2023-05-20T20:32:28.629Z,81.81
2023-05-20T20:35:30.728Z,81.85
2023-05-20T20:38:32.370Z,82.21
2023-05-20T20:41:33.945Z,82.66
2023-05-20T20:44:35.445Z,82.94
2023-05-20T20:47:40.866Z,83.70
2023-05-20T20:50:43.692Z,84.25
2023-05-20T20:53:49.581Z,84.44
2023-05-20T20:56:51.847Z,84.95
2023-05-20T20:59:57.635Z,85.37
2023-05-20T21:02:59.188Z,85.76
2023-05-20T21:06:01.850Z,85.98
2023-05-20T21:09:03.921Z,86.13
2023-05-20T21:12:06.514Z,86.31
2023-05-20T21:15:09.865Z,86.88
2023-05-20T21:18:11.409Z,87.04
2023-05-20T21:21:14.754Z,87.53
2023-05-20T21:24:16.161Z,87.82
2023-05-20T21:27:17.576Z,88.26
2023-05-20T21:30:19.991Z,87.91
2023-05-20T21:33:21.405Z,88.20
2023-05-20T21:36:23.011Z,89.12
2023-05-20T21:39:24.489Z,89.55
2023-05-20T21:42:25.976Z,89.84
2023-05-20T21:45:27.403Z,89.63
2023-05-20T21:48:28.876Z,89.76
2023-05-20T21:51:31.357Z,89.98
2023-05-20T21:54:32.936Z,90.48
2023-05-20T21:57:34.484Z,90.71
2023-05-20T22:00:36.345Z,90.99
2023-05-20T22:03:39.627Z,91.16
2023-05-20T22:06:41.585Z,90.98
2023-05-20T22:09:43.011Z,91.23
2023-05-20T22:12:44.784Z,90.95
2023-05-20T22:15:46.395Z,91.36
2023-05-20T22:18:49.567Z,91.65
2023-05-20T22:21:51.350Z,91.92
2023-05-20T22:24:52.812Z,93.18
2023-05-20T22:27:54.380Z,93.63
2023-05-20T22:30:56.097Z,93.44
2023-05-20T22:33:57.622Z,93.76
2023-05-20T22:36:59.045Z,93.48
2023-05-20T22:40:00.648Z,93.31
2023-05-20T22:43:02.059Z,94.34
2023-05-20T22:46:03.585Z,94.29
2023-05-20T22:49:05.575Z,94.56
2023-05-20T22:52:07.684Z,94.18
2023-05-20T22:55:09.353Z,93.78
2023-05-20T22:58:12.182Z,93.64
2023-05-20T23:01:16.522Z,93.08
2023-05-20T23:04:18.146Z,93.78
2023-05-20T23:07:19.617Z,94.21
2023-05-20T23:10:21.321Z,94.28
2023-05-20T23:13:22.826Z,94.56
2023-05-20T23:16:26.269Z,94.26
2023-05-20T23:19:27.958Z,94.16
2023-05-20T23:22:30.208Z,94.60
2023-05-20T23:25:31.774Z,93.95
2023-05-20T23:28:33.258Z,93.36
2023-05-20T23:31:34.859Z,94.31
2023-05-20T23:34:36.295Z,94.50
2023-05-20T23:37:38.800Z,94.44
2023-05-20T23:40:40.241Z,95.95
2023-05-20T23:43:42.749Z,96.68
2023-05-20T23:46:44.845Z,96.29
2023-05-20T23:49:49.226Z,96.98
2023-05-20T23:52:50.966Z,97.28
2023-05-20T23:55:52.375Z,97.48
2023-05-20T23:58:53.792Z,97.87
